الصفحة الرئيسية
METAR-TAF:

METAR-TAF

مطار :

مطار غوستافو روجاس بينيلا الدولي

San Andrés, كولومبيا

دائرة عرض: 12-35N, خط طول: 081-43W, ارتفاع: 1 متر

مراقبة الطقس الحالي

تاريخ ووقت الإصدار 14 دقيقة قبل الساعة 14:00UTC
ريح 14 عقدة من الشرق تتزايد حتى 24 عقدة
درجة الحرارة 28°درجة مئوية
الرطوبة 70%
ضغط 1015 hPa
الرؤية 10 كم أو أكثر
غيوم قليلة على ارتفاع 1800 قدم

METAR: SKSP 231400Z 08014G24KT 9999 FEW018 28/22 A2997

زمن: 09:14 (14:14 UTC)

توقعات

تاريخ ووقت الإصدار 3ساعات و 14 دقيقة قبل الساعة 11:00UTC
التوقعات صالحة من23 الساعة 12 UTC إلى 24 الساعة 12 UTC
ريح 10 عقدة من الشرق
الرؤية 10 كم أو أكثر
غيوم قليلة على ارتفاع 1700 قدم

TAF: SKSP 231100Z 2312/2412 08010KT 9999 FEW017 TX32/2319Z TN26/2411Z

أرصاد الطقس والتوقعات من أكثر من 4000 مطار (تقارير الطقس للمطار METAR والتنبؤ بالطقس بالمطارTAF).

المحطات المتاحة هي النقط الصفراء والحمراء على الخريطة.

حرك المؤشر فوق النقطة لمعرفة اسم المحطة.

ثم انقر لمعرفة أرصاد وتوقعات الطقس.

لتغيير الخارطة: اضغط على الأزرار الخضراء مع رمز الصليب الأسود للتكبير. على الزر الأخضر مع شرطة للتصغير، أو على الأسهم الخضراء للخرائط المجاورة.


METAR-TAF: